Time;durP1;ratioP1;P1;durP2;ratioP2;P2;SDS_P1;SDS_P2;PMS_P1;PMS_P2;Temp;Humidity;BMP_temperature;BMP_pressure;BME280_temperature;BME280_humidity;BME280_pressure;Samples;Min_cycle;Max_cycle;Signal;HPM_P1;HPM_P2
2021/03/19 00:00:46;;;;;;;28.40;15.73;;;;;;;;;;5025079;28;20111;-85
2021/03/19 00:03:11;;;;;;;34.65;16.13;;;;;;;;;;5027506;28;20025;-86
2021/03/19 00:05:36;;;;;;;34.65;17.38;;;;;;;;;;5028356;28;20069;-86
2021/03/19 00:08:02;;;;;;;39.65;17.17;;;;;;;;;;5024098;28;20024;-85
2021/03/19 00:10:28;;;;;;;32.03;15.35;;;;;;;;;;5026088;28;20106;-86
2021/03/19 00:12:54;;;;;;;29.70;15.60;;;;;;;;;;5026266;28;20021;-86
2021/03/19 00:15:21;;;;;;;25.48;14.90;;;;;;;;;;5028494;28;20018;-86
2021/03/19 00:17:47;;;;;;;26.80;15.57;;;;;;;;;;5025437;28;20025;-85
2021/03/19 00:20:13;;;;;;;35.70;15.18;;;;;;;;;;5025835;28;20031;-86
2021/03/19 00:22:38;;;;;;;27.55;16.13;;;;;;;;;;5032059;28;20086;-86
2021/03/19 00:25:05;;;;;;;32.05;16.38;;;;;;;;;;5027358;28;20548;-87
2021/03/19 00:27:30;;;;;;;33.42;16.85;;;;;;;;;;5025716;28;20029;-86
2021/03/19 00:29:55;;;;;;;31.48;16.63;;;;;;;;;;5025239;28;20025;-85
2021/03/19 00:32:20;;;;;;;35.72;17.08;;;;;;;;;;5025011;28;20025;-86
2021/03/19 00:34:46;;;;;;;31.95;17.25;;;;;;;;;;5026468;28;20017;-86
2021/03/19 00:37:11;;;;;;;32.58;17.17;;;;;;;;;;5025946;28;20047;-85
2021/03/19 00:39:36;;;;;;;38.85;15.85;;;;;;;;;;5025197;28;20026;-86
2021/03/19 00:42:02;;;;;;;40.40;18.90;;;;;;;;;;5027873;28;20548;-86
2021/03/19 00:44:28;;;;;;;34.60;19.27;;;;;;;;;;5030017;28;20037;-86
2021/03/19 00:46:53;;;;;;;30.50;16.65;;;;;;;;;;5028932;28;20028;-85
2021/03/19 00:49:18;;;;;;;32.15;17.02;;;;;;;;;;5029431;28;20033;-86
2021/03/19 00:51:43;;;;;;;32.38;16.15;;;;;;;;;;5029654;28;20021;-86
2021/03/19 00:54:09;;;;;;;29.55;16.17;;;;;;;;;;5029516;28;20105;-86
2021/03/19 00:56:34;;;;;;;33.13;16.83;;;;;;;;;;5029826;28;20108;-86
2021/03/19 00:58:59;;;;;;;27.77;15.65;;;;;;;;;;5030186;28;20030;-84
2021/03/19 01:01:25;;;;;;;36.13;17.83;;;;;;;;;;5028442;28;20497;-86
2021/03/19 01:03:50;;;;;;;26.50;16.23;;;;;;;;;;5024098;28;20030;-86
2021/03/19 01:06:15;;;;;;;33.00;15.30;;;;;;;;;;5021338;28;20025;-86
2021/03/19 01:08:40;;;;;;;29.50;17.05;;;;;;;;;;5028757;28;20052;-86
2021/03/19 01:11:06;;;;;;;30.17;16.08;;;;;;;;;;5039855;23;20564;-69
2021/03/19 01:13:31;;;;;;;29.52;16.08;;;;;;;;;;5031593;28;20028;-69
2021/03/19 01:15:56;;;;;;;32.33;15.70;;;;;;;;;;5032015;28;20018;-69
2021/03/19 01:18:23;;;;;;;28.23;15.73;;;;;;;;;;5031779;28;20032;-69
2021/03/19 01:20:49;;;;;;;31.17;15.70;;;;;;;;;;5032044;28;20029;-68
2021/03/19 01:23:14;;;;;;;33.17;16.15;;;;;;;;;;5038724;28;20024;-69
2021/03/19 01:25:40;;;;;;;30.85;17.13;;;;;;;;;;5080118;22;20044;-65
2021/03/19 01:28:05;;;;;;;34.53;18.52;;;;;;;;;;5090758;28;20043;-65
2021/03/19 01:30:32;;;;;;;29.20;16.58;;;;;;;;;;5092224;28;20027;-65
2021/03/19 01:32:58;;;;;;;37.75;18.17;;;;;;;;;;5092000;28;20403;-65
2021/03/19 01:35:23;;;;;;;33.33;15.57;;;;;;;;;;5092029;28;20020;-65
2021/03/19 01:37:50;;;;;;;30.88;16.83;;;;;;;;;;5085073;28;20096;-65
2021/03/19 01:40:15;;;;;;;29.67;16.17;;;;;;;;;;5085656;28;20023;-65
2021/03/19 01:42:48;;;;;;;35.90;17.80;;;;;;;;;;5073900;28;20021;-65
2021/03/19 01:45:32;;;;;;;30.20;16.73;;;;;;;;;;5075991;28;20028;-65
2021/03/19 01:48:16;;;;;;;31.02;17.38;;;;;;;;;;5071389;28;20653;-65
2021/03/19 01:51:00;;;;;;;33.20;17.30;;;;;;;;;;5078919;28;20016;-65
2021/03/19 01:53:44;;;;;;;35.38;18.20;;;;;;;;;;5094888;28;20012;-65
2021/03/19 01:56:27;;;;;;;33.22;16.77;;;;;;;;;;5080411;28;20349;-65
2021/03/19 01:59:11;;;;;;;38.42;17.85;;;;;;;;;;5074632;28;20027;-65
2021/03/19 02:01:55;;;;;;;35.22;17.05;;;;;;;;;;5074623;28;20143;-65
2021/03/19 02:04:38;;;;;;;31.60;17.83;;;;;;;;;;5080951;28;20078;-65
2021/03/19 02:07:22;;;;;;;40.28;18.20;;;;;;;;;;5086920;28;20089;-65
2021/03/19 02:10:06;;;;;;;41.85;19.10;;;;;;;;;;5072582;28;20013;-65
2021/03/19 02:12:50;;;;;;;38.38;19.50;;;;;;;;;;5075251;28;20031;-64
2021/03/19 02:15:33;;;;;;;38.22;19.33;;;;;;;;;;5083358;28;20524;-65
2021/03/19 02:18:17;;;;;;;40.50;19.77;;;;;;;;;;5072030;28;20047;-65
2021/03/19 02:21:01;;;;;;;41.60;20.15;;;;;;;;;;5084551;28;20095;-65
2021/03/19 02:23:45;;;;;;;41.42;20.50;;;;;;;;;;5088331;28;20028;-65
2021/03/19 02:26:28;;;;;;;45.83;21.33;;;;;;;;;;5088917;28;20024;-65
2021/03/19 02:29:12;;;;;;;39.75;20.77;;;;;;;;;;5073408;28;20027;-65
2021/03/19 02:32:00;;;;;;;41.00;20.00;;;;;;;;;;5074657;28;20020;-65
2021/03/19 02:34:27;;;;;;;40.25;21.50;;;;;;;;;;5083997;28;20353;-64
2021/03/19 02:36:53;;;;;;;38.60;19.60;;;;;;;;;;5085138;28;20004;-64
2021/03/19 02:39:18;;;;;;;43.47;20.45;;;;;;;;;;5080819;28;20035;-65
2021/03/19 02:41:43;;;;;;;50.00;22.40;;;;;;;;;;5087331;28;20031;-65
2021/03/19 02:44:08;;;;;;;40.80;20.23;;;;;;;;;;5090493;28;20043;-65
2021/03/19 02:46:34;;;;;;;48.72;21.88;;;;;;;;;;5083072;28;20464;-64
2021/03/19 02:48:59;;;;;;;39.13;20.95;;;;;;;;;;5082283;28;20031;-64
2021/03/19 02:51:24;;;;;;;44.72;21.15;;;;;;;;;;5084277;28;20027;-64
2021/03/19 02:53:50;;;;;;;41.10;21.30;;;;;;;;;;5082105;28;20021;-64
2021/03/19 02:56:15;;;;;;;44.80;20.73;;;;;;;;;;5070893;28;20087;-65
2021/03/19 02:58:41;;;;;;;41.42;20.73;;;;;;;;;;5078198;28;20020;-64
2021/03/19 03:01:06;;;;;;;45.83;22.17;;;;;;;;;;5072837;28;20066;-64
2021/03/19 03:03:32;;;;;;;46.42;23.13;;;;;;;;;;5070716;28;20028;-64
2021/03/19 03:05:58;;;;;;;46.75;22.48;;;;;;;;;;5084554;28;20016;-64
2021/03/19 03:08:23;;;;;;;49.97;22.65;;;;;;;;;;5073483;28;20024;-64
2021/03/19 03:10:49;;;;;;;46.85;23.35;;;;;;;;;;5074067;28;20016;-64
2021/03/19 03:13:15;;;;;;;48.10;23.27;;;;;;;;;;5090780;28;20069;-64
2021/03/19 03:15:41;;;;;;;44.45;23.20;;;;;;;;;;5083707;28;20419;-64
2021/03/19 03:18:07;;;;;;;53.58;23.00;;;;;;;;;;5079415;28;20046;-64
2021/03/19 03:20:36;;;;;;;57.03;24.05;;;;;;;;;;5072618;28;20020;-64
2021/03/19 03:23:02;;;;;;;47.70;23.27;;;;;;;;;;5085492;28;20020;-64
2021/03/19 03:25:27;;;;;;;48.15;23.90;;;;;;;;;;5091448;28;20028;-64
2021/03/19 03:27:53;;;;;;;53.38;24.00;;;;;;;;;;5085905;28;20102;-64
2021/03/19 03:30:29;;;;;;;49.00;21.67;;;;;;;;;;5088465;28;20027;-64
2021/03/19 03:32:55;;;;;;;52.70;24.48;;;;;;;;;;5081759;28;20020;-64
2021/03/19 03:35:20;;;;;;;45.95;23.50;;;;;;;;;;5076843;28;20039;-64
2021/03/19 03:37:46;;;;;;;47.80;22.85;;;;;;;;;;5085740;28;20012;-64
2021/03/19 03:40:13;;;;;;;49.85;23.20;;;;;;;;;;5075443;28;20031;-64
2021/03/19 03:42:38;;;;;;;48.45;23.48;;;;;;;;;;5078255;28;20016;-64
2021/03/19 03:45:04;;;;;;;45.78;23.75;;;;;;;;;;5073078;28;20100;-64
2021/03/19 03:47:29;;;;;;;51.13;24.52;;;;;;;;;;5075246;28;20032;-64
2021/03/19 03:49:54;;;;;;;52.33;23.38;;;;;;;;;;5086248;28;20052;-64
2021/03/19 03:52:19;;;;;;;47.65;22.60;;;;;;;;;;5074623;28;20029;-64
2021/03/19 03:54:44;;;;;;;49.08;23.60;;;;;;;;;;5074896;28;20032;-64
2021/03/19 03:57:10;;;;;;;52.88;22.55;;;;;;;;;;5082787;28;20017;-64
2021/03/19 03:59:35;;;;;;;46.63;23.38;;;;;;;;;;5082625;28;20420;-64
2021/03/19 04:02:14;;;;;;;48.67;24.40;;;;;;;;;;5083514;28;20069;-63
2021/03/19 04:04:39;;;;;;;50.40;23.05;;;;;;;;;;5080420;28;20024;-64
2021/03/19 04:07:04;;;;;;;48.08;24.27;;;;;;;;;;5073710;28;20020;-64
2021/03/19 04:09:29;;;;;;;47.30;23.08;;;;;;;;;;5088118;28;20073;-64
2021/03/19 04:11:54;;;;;;;42.78;22.02;;;;;;;;;;5080612;28;20612;-64
2021/03/19 04:14:19;;;;;;;50.35;22.40;;;;;;;;;;5072854;28;20031;-64
2021/03/19 04:16:45;;;;;;;44.42;21.25;;;;;;;;;;5080325;28;20115;-64
2021/03/19 04:19:10;;;;;;;52.80;25.10;;;;;;;;;;5085134;28;20059;-64
2021/03/19 04:21:35;;;;;;;47.03;22.70;;;;;;;;;;5086940;28;20094;-63
2021/03/19 04:24:01;;;;;;;42.05;20.85;;;;;;;;;;5093997;28;20027;-64
2021/03/19 04:26:28;;;;;;;48.55;22.92;;;;;;;;;;5114623;28;20027;-64
2021/03/19 04:28:53;;;;;;;42.60;21.40;;;;;;;;;;5091729;28;20023;-64
2021/03/19 04:31:19;;;;;;;41.17;19.55;;;;;;;;;;5089198;28;20038;-64
2021/03/19 04:33:44;;;;;;;42.75;20.95;;;;;;;;;;5080747;28;20024;-64
2021/03/19 04:36:15;;;;;;;41.42;19.92;;;;;;;;;;5090115;28;20012;-64
2021/03/19 04:38:41;;;;;;;42.15;20.23;;;;;;;;;;5078747;28;20485;-64
2021/03/19 04:41:08;;;;;;;47.03;20.60;;;;;;;;;;5084127;28;20400;-64
2021/03/19 04:43:34;;;;;;;45.78;20.73;;;;;;;;;;5091692;28;20078;-64
2021/03/19 04:45:59;;;;;;;40.70;19.35;;;;;;;;;;5081928;28;20424;-64
2021/03/19 04:48:24;;;;;;;40.40;19.38;;;;;;;;;;5077262;28;20028;-64
2021/03/19 04:50:49;;;;;;;44.95;20.70;;;;;;;;;;5074201;28;20025;-64
2021/03/19 04:53:14;;;;;;;36.95;18.08;;;;;;;;;;5084486;28;20380;-64
2021/03/19 04:55:40;;;;;;;43.67;19.30;;;;;;;;;;5100321;28;20032;-64
2021/03/19 04:58:05;;;;;;;40.22;19.27;;;;;;;;;;5079710;28;20023;-63
2021/03/19 05:00:30;;;;;;;39.78;19.67;;;;;;;;;;5073933;28;20103;-64
2021/03/19 05:02:55;;;;;;;39.80;19.15;;;;;;;;;;5086601;28;20043;-64
2021/03/19 05:05:20;;;;;;;41.00;20.20;;;;;;;;;;5081948;28;20024;-64
2021/03/19 05:07:46;;;;;;;47.30;21.37;;;;;;;;;;5091098;28;20111;-64
2021/03/19 05:10:12;;;;;;;44.70;21.35;;;;;;;;;;5083053;28;20258;-64
2021/03/19 05:12:37;;;;;;;54.95;21.55;;;;;;;;;;5089935;28;20031;-64
2021/03/19 05:15:03;;;;;;;49.55;21.88;;;;;;;;;;5085642;28;20046;-64
2021/03/19 05:17:30;;;;;;;50.00;22.25;;;;;;;;;;5078520;28;20021;-64
2021/03/19 05:19:55;;;;;;;44.00;21.98;;;;;;;;;;5083433;28;20050;-64
2021/03/19 05:22:21;;;;;;;44.10;21.63;;;;;;;;;;5086317;28;20024;-64
2021/03/19 05:24:46;;;;;;;44.97;22.65;;;;;;;;;;5094673;28;20025;-64
2021/03/19 05:27:11;;;;;;;54.70;23.85;;;;;;;;;;5077964;28;20064;-64
2021/03/19 05:29:36;;;;;;;44.72;22.27;;;;;;;;;;5070736;28;20032;-64
2021/03/19 05:32:02;;;;;;;48.83;23.00;;;;;;;;;;5084245;28;20022;-64
2021/03/19 05:34:27;;;;;;;44.83;21.13;;;;;;;;;;5079886;28;20083;-64
2021/03/19 05:36:52;;;;;;;54.70;24.55;;;;;;;;;;5081132;28;20329;-64
2021/03/19 05:39:17;;;;;;;50.33;24.05;;;;;;;;;;5087216;28;20077;-64
2021/03/19 05:41:43;;;;;;;50.42;22.63;;;;;;;;;;5082160;28;20059;-64
2021/03/19 05:44:16;;;;;;;45.83;21.75;;;;;;;;;;5085259;28;20363;-64
2021/03/19 05:46:43;;;;;;;43.88;22.17;;;;;;;;;;5082591;28;20101;-64
2021/03/19 05:49:09;;;;;;;45.92;21.67;;;;;;;;;;5076491;28;20108;-64
2021/03/19 05:51:34;;;;;;;45.42;19.65;;;;;;;;;;5080135;28;20623;-64
2021/03/19 05:54:11;;;;;;;42.90;21.70;;;;;;;;;;5083110;28;20043;-64
2021/03/19 05:56:36;;;;;;;39.38;19.35;;;;;;;;;;5091117;28;20081;-64
2021/03/19 05:59:02;;;;;;;41.55;20.25;;;;;;;;;;5080120;28;20016;-64
2021/03/19 06:01:27;;;;;;;43.72;19.90;;;;;;;;;;5083122;28;20020;-64
2021/03/19 06:03:55;;;;;;;37.88;18.30;;;;;;;;;;5083717;28;20456;-64
2021/03/19 06:06:20;;;;;;;37.90;18.15;;;;;;;;;;5086899;28;20025;-64
2021/03/19 06:08:47;;;;;;;35.95;17.88;;;;;;;;;;5080639;28;20039;-64
2021/03/19 06:11:23;;;;;;;40.90;18.27;;;;;;;;;;5076266;28;20031;-64
2021/03/19 06:14:01;;;;;;;38.28;18.17;;;;;;;;;;5072992;28;20020;-64
2021/03/19 06:16:32;;;;;;;39.35;18.00;;;;;;;;;;5083024;28;20046;-64
2021/03/19 06:18:58;;;;;;;38.38;18.20;;;;;;;;;;5087285;28;20057;-64
2021/03/19 06:21:42;;;;;;;36.65;18.63;;;;;;;;;;5076235;28;20025;-64
2021/03/19 06:24:16;;;;;;;42.50;19.83;;;;;;;;;;5087181;28;20039;-64
2021/03/19 06:26:42;;;;;;;43.35;18.67;;;;;;;;;;5081244;28;20044;-64
2021/03/19 06:29:13;;;;;;;41.17;18.77;;;;;;;;;;5079323;28;20024;-64
2021/03/19 06:31:39;;;;;;;35.42;18.30;;;;;;;;;;5081170;28;20016;-64
2021/03/19 06:34:10;;;;;;;38.47;18.05;;;;;;;;;;5082595;28;20161;-64
2021/03/19 06:36:54;;;;;;;41.20;18.80;;;;;;;;;;5087401;28;20500;-64
2021/03/19 06:39:21;;;;;;;33.90;15.93;;;;;;;;;;5085839;28;20028;-64
2021/03/19 06:41:59;;;;;;;35.22;17.08;;;;;;;;;;5087661;28;20024;-63
2021/03/19 06:44:24;;;;;;;38.38;17.50;;;;;;;;;;5087783;28;20054;-65
2021/03/19 06:46:50;;;;;;;37.38;17.55;;;;;;;;;;5077119;28;20024;-65
2021/03/19 06:49:16;;;;;;;40.20;18.42;;;;;;;;;;5084721;28;20035;-64
2021/03/19 06:51:43;;;;;;;34.40;18.50;;;;;;;;;;5086117;28;20020;-64
2021/03/19 06:54:10;;;;;;;34.72;16.70;;;;;;;;;;5088797;28;20276;-63
2021/03/19 06:56:36;;;;;;;29.23;16.70;;;;;;;;;;5084176;28;20020;-63
2021/03/19 06:59:17;;;;;;;33.03;16.95;;;;;;;;;;5080045;28;20569;-63
2021/03/19 07:01:42;;;;;;;30.35;14.93;;;;;;;;;;5075415;28;20020;-65
2021/03/19 07:04:26;;;;;;;27.35;14.18;;;;;;;;;;5083749;28;20533;-64
2021/03/19 07:07:10;;;;;;;25.02;14.32;;;;;;;;;;5081543;28;20027;-64
2021/03/19 07:09:40;;;;;;;28.08;15.02;;;;;;;;;;5081112;28;20027;-65
2021/03/19 07:12:08;;;;;;;26.35;15.68;;;;;;;;;;5075151;28;20095;-64
2021/03/19 07:14:33;;;;;;;26.17;14.50;;;;;;;;;;5084260;28;20021;-64
2021/03/19 07:17:09;;;;;;;27.40;15.80;;;;;;;;;;5072408;28;20012;-64
2021/03/19 07:19:40;;;;;;;27.17;15.85;;;;;;;;;;5070701;28;20328;-64
2021/03/19 07:22:10;;;;;;;29.40;16.08;;;;;;;;;;5071482;28;20056;-64
2021/03/19 07:24:42;;;;;;;25.92;15.68;;;;;;;;;;5085531;28;20020;-65
2021/03/19 07:27:13;;;;;;;27.45;16.08;;;;;;;;;;5061953;23;20052;-86
2021/03/19 07:29:41;;;;;;;29.15;16.75;;;;;;;;;;5029794;28;20039;-87
2021/03/19 07:32:10;;;;;;;26.70;15.60;;;;;;;;;;5068402;28;20176;-86
2021/03/19 07:35:13;;;;;;;24.05;15.15;;;;;;;;;;5042072;28;20049;-87
2021/03/19 07:37:42;;;;;;;25.13;14.23;;;;;;;;;;4988269;28;20057;-87
2021/03/19 07:40:09;;;;;;;22.02;14.88;;;;;;;;;;4995582;28;20022;-86
2021/03/19 07:42:35;;;;;;;25.70;15.57;;;;;;;;;;5011119;28;20029;-87
2021/03/19 07:45:06;;;;;;;26.77;14.40;;;;;;;;;;5031408;28;20013;-86
2021/03/19 07:47:49;;;;;;;25.02;14.65;;;;;;;;;;5043848;28;20278;-86
2021/03/19 07:50:24;;;;;;;23.85;14.15;;;;;;;;;;5049336;28;20037;-86
2021/03/19 07:52:52;;;;;;;21.55;13.02;;;;;;;;;;5057473;28;20021;-87
2021/03/19 07:55:17;;;;;;;23.60;12.32;;;;;;;;;;5050312;28;20039;-85
2021/03/19 07:57:49;;;;;;;18.08;11.30;;;;;;;;;;5050036;28;20036;-86
2021/03/19 08:00:22;;;;;;;18.83;11.75;;;;;;;;;;5053591;28;20013;-86
2021/03/19 08:02:48;;;;;;;18.02;12.25;;;;;;;;;;5038940;28;20098;-86
2021/03/19 08:05:13;;;;;;;15.82;11.00;;;;;;;;;;5040197;28;20029;-87
2021/03/19 08:07:50;;;;;;;16.35;10.85;;;;;;;;;;5058014;28;20021;-87
2021/03/19 08:10:30;;;;;;;16.92;11.88;;;;;;;;;;5052337;28;20044;-87
2021/03/19 08:13:05;;;;;;;17.92;12.95;;;;;;;;;;5053336;28;20135;-88
2021/03/19 08:15:42;;;;;;;20.98;12.82;;;;;;;;;;5033104;28;20021;-87
2021/03/19 08:18:24;;;;;;;18.98;12.50;;;;;;;;;;5053095;28;20047;-87
2021/03/19 08:21:01;;;;;;;19.63;12.75;;;;;;;;;;5054402;28;20025;-86
2021/03/19 08:23:39;;;;;;;18.70;12.45;;;;;;;;;;5054101;28;20079;-88
2021/03/19 08:26:05;;;;;;;19.50;12.27;;;;;;;;;;5035208;28;20033;-88
2021/03/19 08:28:42;;;;;;;17.75;12.18;;;;;;;;;;5046827;28;20337;-87
2021/03/19 08:31:17;;;;;;;22.13;12.63;;;;;;;;;;5054214;28;20024;-87
2021/03/19 08:33:51;;;;;;;17.15;11.05;;;;;;;;;;5053179;28;20088;-87
2021/03/19 08:36:22;;;;;;;15.35;11.25;;;;;;;;;;5039019;28;20021;-87
2021/03/19 08:38:52;;;;;;;18.15;11.82;;;;;;;;;;5037625;28;20021;-88
2021/03/19 08:41:27;;;;;;;16.30;9.93;;;;;;;;;;5051635;28;20027;-87
2021/03/19 08:44:02;;;;;;;13.82;10.00;;;;;;;;;;5051543;28;20112;-87
2021/03/19 08:46:31;;;;;;;18.45;10.07;;;;;;;;;;5029313;28;20149;-87
2021/03/19 08:49:01;;;;;;;19.60;10.02;;;;;;;;;;5051804;28;20051;-87
2021/03/19 08:51:26;;;;;;;14.82;8.45;;;;;;;;;;5048197;28;20524;-87
2021/03/19 08:54:15;;;;;;;13.27;8.48;;;;;;;;;;5038546;28;20033;-87
2021/03/19 08:56:43;;;;;;;13.55;9.73;;;;;;;;;;5066885;28;20140;-87
2021/03/19 08:59:34;;;;;;;12.48;7.82;;;;;;;;;;5033092;28;20075;-87
2021/03/19 09:02:04;;;;;;;12.57;7.80;;;;;;;;;;5023126;28;20017;-87
2021/03/19 09:04:47;;;;;;;14.77;8.48;;;;;;;;;;5031313;28;20028;-87
2021/03/19 09:07:33;;;;;;;14.27;8.05;;;;;;;;;;5042934;28;20025;-87
2021/03/19 09:10:19;;;;;;;11.55;6.80;;;;;;;;;;5028478;28;20036;-87
2021/03/19 09:12:56;;;;;;;11.55;6.82;;;;;;;;;;5010821;28;20025;-86
2021/03/19 09:15:22;;;;;;;10.20;6.85;;;;;;;;;;5035112;28;20013;-85
2021/03/19 09:17:49;;;;;;;9.48;6.47;;;;;;;;;;5032722;28;20675;-86
2021/03/19 09:20:42;;;;;;;11.48;7.05;;;;;;;;;;5050725;28;20393;-86
2021/03/19 09:23:07;;;;;;;15.77;9.15;;;;;;;;;;5050164;28;20670;-86
2021/03/19 09:25:38;;;;;;;7.47;5.40;;;;;;;;;;5045182;28;20021;-86
2021/03/19 09:28:04;;;;;;;11.50;5.85;;;;;;;;;;5058374;28;20509;-85
2021/03/19 09:30:45;;;;;;;8.15;5.65;;;;;;;;;;5053447;28;20024;-86
2021/03/19 09:33:29;;;;;;;12.38;5.88;;;;;;;;;;5050424;28;20484;-87
2021/03/19 09:35:54;;;;;;;12.95;6.03;;;;;;;;;;5048607;28;20024;-85
2021/03/19 09:38:40;;;;;;;11.55;6.07;;;;;;;;;;5046472;28;20021;-85
2021/03/19 09:41:07;;;;;;;16.67;5.28;;;;;;;;;;5031972;28;20060;-86
2021/03/19 09:43:33;;;;;;;8.45;4.97;;;;;;;;;;5065815;28;20820;-86
2021/03/19 09:46:03;;;;;;;11.88;5.80;;;;;;;;;;5049371;28;20047;-86
2021/03/19 09:48:28;;;;;;;;;;;;;;;;;;5064560;28;20025;-85
2021/03/19 09:50:56;;;;;;;11.00;4.63;;;;;;;;;;5033638;28;20054;-87
2021/03/19 09:53:38;;;;;;;7.55;3.85;;;;;;;;;;5031794;28;20100;-85
2021/03/19 09:56:14;;;;;;;8.60;4.28;;;;;;;;;;5045108;28;20025;-86
2021/03/19 09:58:44;;;;;;;7.72;3.80;;;;;;;;;;5031987;28;20032;-86
2021/03/19 10:01:30;;;;;;;10.50;4.28;;;;;;;;;;5050123;28;20099;-86
2021/03/19 10:03:59;;;;;;;8.30;3.95;;;;;;;;;;5032108;28;20028;-86
2021/03/19 10:06:26;;;;;;;6.88;3.47;;;;;;;;;;5048614;28;20476;-87
2021/03/19 10:09:02;;;;;;;5.07;3.05;;;;;;;;;;5050583;28;20029;-85
2021/03/19 10:11:30;;;;;;;8.77;3.15;;;;;;;;;;5031808;28;20024;-86
2021/03/19 10:14:12;;;;;;;6.43;3.35;;;;;;;;;;5030340;28;20033;-86
2021/03/19 10:16:38;;;;;;;11.98;3.30;;;;;;;;;;5031303;28;20025;-85
2021/03/19 10:19:09;;;;;;;4.82;3.08;;;;;;;;;;5032855;28;20021;-86
2021/03/19 10:21:42;;;;;;;7.07;3.65;;;;;;;;;;5034050;28;20528;-86
2021/03/19 10:24:08;;;;;;;7.32;3.10;;;;;;;;;;5050227;28;20118;-85
2021/03/19 10:26:56;;;;;;;9.27;3.63;;;;;;;;;;5049307;28;20068;-86
2021/03/19 10:29:27;;;;;;;6.07;2.83;;;;;;;;;;5049772;28;20024;-86
2021/03/19 10:31:54;;;;;;;6.43;2.65;;;;;;;;;;5065920;28;20028;-86
2021/03/19 10:34:26;;;;;;;5.38;2.92;;;;;;;;;;5031647;28;20112;-85
2021/03/19 10:36:57;;;;;;;6.65;2.35;;;;;;;;;;5031667;28;20040;-87
2021/03/19 10:39:25;;;;;;;4.90;2.53;;;;;;;;;;5060097;28;20124;-87
2021/03/19 10:42:11;;;;;;;6.32;2.35;;;;;;;;;;5031444;28;20020;-85
2021/03/19 10:44:55;;;;;;;4.85;2.63;;;;;;;;;;5048814;28;20025;-86
2021/03/19 10:47:24;;;;;;;6.68;2.83;;;;;;;;;;5042330;28;20111;-85
2021/03/19 10:49:57;;;;;;;4.25;2.30;;;;;;;;;;5049357;28;20037;-85
2021/03/19 10:52:26;;;;;;;3.97;2.55;;;;;;;;;;5049732;28;20017;-87
2021/03/19 10:54:53;;;;;;;6.38;3.15;;;;;;;;;;5023765;28;20021;-85
2021/03/19 10:57:21;;;;;;;4.70;2.30;;;;;;;;;;5030838;28;20021;-85
2021/03/19 10:59:49;;;;;;;3.55;2.67;;;;;;;;;;5032028;28;20021;-86
2021/03/19 11:02:17;;;;;;;5.82;2.65;;;;;;;;;;5032181;28;20396;-86
2021/03/19 11:04:45;;;;;;;3.15;2.17;;;;;;;;;;5049813;28;20079;-86
2021/03/19 11:07:22;;;;;;;3.85;2.47;;;;;;;;;;5044309;28;20021;-87
2021/03/19 11:10:07;;;;;;;4.53;2.65;;;;;;;;;;5053765;28;20049;-87
2021/03/19 11:12:34;;;;;;;4.57;2.47;;;;;;;;;;5058246;28;20025;-86
2021/03/19 11:15:00;;;;;;;4.85;3.08;;;;;;;;;;5042119;28;20027;-86
2021/03/19 11:17:31;;;;;;;10.35;2.80;;;;;;;;;;5031913;28;20021;-86
2021/03/19 11:19:59;;;;;;;5.05;2.75;;;;;;;;;;5030606;28;20059;-85
2021/03/19 11:22:32;;;;;;;4.78;2.00;;;;;;;;;;5048427;28;20059;-85
2021/03/19 11:25:08;;;;;;;4.22;2.45;;;;;;;;;;5049653;28;20021;-87
2021/03/19 11:27:33;;;;;;;8.07;2.47;;;;;;;;;;5065885;28;20027;-86
2021/03/19 11:30:10;;;;;;;3.83;2.38;;;;;;;;;;5049332;28;20024;-86
2021/03/19 11:32:35;;;;;;;3.63;1.98;;;;;;;;;;5047847;28;20021;-87
2021/03/19 11:35:18;;;;;;;4.38;2.25;;;;;;;;;;5038198;28;20032;-86
2021/03/19 11:37:46;;;;;;;4.40;2.00;;;;;;;;;;5057770;28;20106;-85
2021/03/19 11:40:20;;;;;;;3.75;2.17;;;;;;;;;;5049480;28;20071;-86
2021/03/19 11:42:45;;;;;;;5.07;2.10;;;;;;;;;;5049594;28;20036;-85
2021/03/19 11:45:10;;;;;;;3.90;2.38;;;;;;;;;;5047461;28;20021;-86
2021/03/19 11:47:38;;;;;;;8.02;2.47;;;;;;;;;;5029922;28;20693;-86
2021/03/19 11:50:09;;;;;;;5.75;2.33;;;;;;;;;;5030150;28;20032;-86
2021/03/19 11:52:34;;;;;;;8.88;2.13;;;;;;;;;;5031254;28;20507;-86
2021/03/19 11:55:00;;;;;;;8.18;2.03;;;;;;;;;;5043251;28;20021;-84
2021/03/19 11:57:25;;;;;;;3.03;1.70;;;;;;;;;;5030374;28;20021;-85
2021/03/19 11:59:51;;;;;;;2.70;1.83;;;;;;;;;;5046944;28;20017;-86
2021/03/19 12:02:24;;;;;;;7.18;2.10;;;;;;;;;;5049509;28;20032;-86
2021/03/19 12:04:50;;;;;;;6.00;1.55;;;;;;;;;;5048088;28;20029;-86
2021/03/19 12:07:15;;;;;;;3.38;1.70;;;;;;;;;;5048667;28;20048;-86
2021/03/19 12:09:40;;;;;;;3.40;1.73;;;;;;;;;;5034927;28;20054;-87
2021/03/19 12:12:16;;;;;;;2.58;1.40;;;;;;;;;;5033071;28;20016;-87
2021/03/19 12:14:55;;;;;;;4.07;1.92;;;;;;;;;;5051333;28;20032;-90
2021/03/19 12:17:22;;;;;;;3.10;1.75;;;;;;;;;;5029637;28;20017;-85
2021/03/19 12:23:12;;;;;;;4.35;1.83;;;;;;;;;;4970838;28;20190;-88
2021/03/19 12:25:41;;;;;;;4.30;1.50;;;;;;;;;;5035050;28;20668;-88
2021/03/19 12:28:09;;;;;;;7.80;2.03;;;;;;;;;;5031494;28;20124;-87
2021/03/19 12:30:35;;;;;;;2.25;1.30;;;;;;;;;;5064978;28;20025;-88
2021/03/19 12:33:01;;;;;;;2.15;1.02;;;;;;;;;;5063768;28;20021;-87
2021/03/19 12:35:27;;;;;;;2.05;1.20;;;;;;;;;;5042611;28;20017;-88
2021/03/19 12:37:53;;;;;;;2.30;1.08;;;;;;;;;;5041109;28;20009;-87
2021/03/19 12:40:19;;;;;;;1.80;1.00;;;;;;;;;;5041158;28;20081;-86
2021/03/19 12:42:45;;;;;;;5.30;1.10;;;;;;;;;;5077400;28;20001;-87
2021/03/19 12:45:11;;;;;;;1.75;1.00;;;;;;;;;;5036624;28;20057;-86
2021/03/19 12:47:51;;;;;;;1.92;0.90;;;;;;;;;;5052265;28;20103;-87
2021/03/19 12:50:48;;;;;;;4.53;1.27;;;;;;;;;;5068915;28;20028;-88
2021/03/19 12:53:23;;;;;;;1.33;0.77;;;;;;;;;;5048042;28;20025;-87
2021/03/19 12:56:08;;;;;;;1.60;0.90;;;;;;;;;;5034772;28;20043;-89
2021/03/19 12:58:34;;;;;;;3.65;1.58;;;;;;;;;;5033784;28;20029;-87
2021/03/19 13:01:05;;;;;;;3.53;1.60;;;;;;;;;;5043924;28;20029;-90
2021/03/19 13:03:34;;;;;;;4.93;1.63;;;;;;;;;;5045769;28;20523;-90
2021/03/19 13:06:30;;;;;;;4.45;1.42;;;;;;;;;;5025275;28;20021;-88
2021/03/19 13:08:59;;;;;;;3.75;1.30;;;;;;;;;;5018591;28;20323;-88
2021/03/19 13:11:25;;;;;;;5.90;1.45;;;;;;;;;;5082243;22;20507;-69
2021/03/19 13:13:50;;;;;;;2.45;1.33;;;;;;;;;;5060185;28;20017;-68
2021/03/19 13:16:15;;;;;;;8.73;1.53;;;;;;;;;;5062584;28;20028;-67
2021/03/19 13:18:40;;;;;;;5.60;0.90;;;;;;;;;;5071975;28;20345;-68
2021/03/19 13:21:06;;;;;;;1.58;1.05;;;;;;;;;;5069949;28;20044;-67
2021/03/19 13:23:32;;;;;;;3.53;1.27;;;;;;;;;;5067461;28;20067;-67
2021/03/19 13:25:58;;;;;;;2.97;1.00;;;;;;;;;;5082101;22;20032;-64
2021/03/19 13:28:23;;;;;;;1.85;1.00;;;;;;;;;;5046550;28;20096;-64
2021/03/19 13:30:49;;;;;;;2.83;0.77;;;;;;;;;;5051734;28;20017;-65
2021/03/19 13:33:15;;;;;;;2.25;1.00;;;;;;;;;;5052732;28;20379;-64
2021/03/19 13:35:45;;;;;;;2.67;0.90;;;;;;;;;;5054543;28;20143;-64
2021/03/19 13:38:11;;;;;;;3.20;0.95;;;;;;;;;;5045349;28;20017;-64
2021/03/19 13:40:41;;;;;;;3.05;1.38;;;;;;;;;;5048845;28;20029;-64
2021/03/19 13:43:07;;;;;;;6.25;0.80;;;;;;;;;;5049315;28;20520;-63
2021/03/19 13:45:32;;;;;;;1.33;0.70;;;;;;;;;;5050190;28;20029;-63
2021/03/19 13:47:57;;;;;;;4.05;0.82;;;;;;;;;;5045306;28;20027;-63
2021/03/19 13:50:23;;;;;;;1.08;0.47;;;;;;;;;;5051570;28;20540;-63
2021/03/19 13:52:48;;;;;;;1.52;0.77;;;;;;;;;;5051502;28;20112;-63
2021/03/19 13:55:14;;;;;;;2.63;0.80;;;;;;;;;;5046591;28;20020;-64
2021/03/19 13:57:52;;;;;;;1.55;0.80;;;;;;;;;;5051423;28;20025;-63
2021/03/19 14:00:22;;;;;;;5.15;1.00;;;;;;;;;;5042772;28;20477;-63
2021/03/19 14:02:47;;;;;;;1.98;1.05;;;;;;;;;;5050943;28;20443;-63
2021/03/19 14:05:12;;;;;;;2.47;1.10;;;;;;;;;;5050805;28;20031;-64
2021/03/19 14:07:38;;;;;;;2.83;1.10;;;;;;;;;;5046447;28;20026;-64
2021/03/19 14:10:03;;;;;;;1.52;0.85;;;;;;;;;;5039579;28;20036;-64
2021/03/19 14:12:29;;;;;;;1.15;0.80;;;;;;;;;;5050457;28;20017;-63
2021/03/19 14:14:54;;;;;;;1.92;0.90;;;;;;;;;;5050588;28;20467;-64
2021/03/19 14:17:19;;;;;;;3.55;0.80;;;;;;;;;;5051222;28;20377;-63
2021/03/19 14:19:45;;;;;;;1.52;0.80;;;;;;;;;;5050265;28;20090;-64
2021/03/19 14:22:10;;;;;;;5.32;1.15;;;;;;;;;;5051385;28;20025;-64
2021/03/19 14:24:35;;;;;;;1.52;0.85;;;;;;;;;;5048751;28;20123;-63
2021/03/19 14:27:00;;;;;;;4.50;1.00;;;;;;;;;;5049771;28;20439;-63
2021/03/19 14:29:26;;;;;;;1.20;0.75;;;;;;;;;;5049439;28;20363;-63
2021/03/19 14:31:51;;;;;;;1.88;0.77;;;;;;;;;;5048113;28;20023;-63
2021/03/19 14:34:16;;;;;;;4.03;0.90;;;;;;;;;;5050377;28;20021;-64
2021/03/19 14:36:41;;;;;;;1.30;0.77;;;;;;;;;;5051074;28;20040;-63
2021/03/19 14:39:06;;;;;;;2.53;1.13;;;;;;;;;;5050609;28;20021;-63
2021/03/19 14:41:32;;;;;;;2.42;1.02;;;;;;;;;;5051257;28;20404;-64
2021/03/19 14:43:57;;;;;;;5.57;0.80;;;;;;;;;;5048511;28;20050;-63